createdAt,value
2023-01-07T00:00:21.009Z,95.28
2023-01-07T00:04:26.018Z,96.26
2023-01-07T00:08:41.049Z,95.20
2023-01-07T00:12:46.733Z,95.46
2023-01-07T00:16:57.836Z,96.03
2023-01-07T00:21:03.787Z,97.03
2023-01-07T00:25:12.205Z,96.02
2023-01-07T00:29:21.411Z,96.34
2023-01-07T00:33:28.747Z,94.98
2023-01-07T00:37:49.070Z,95.30
2023-01-07T00:42:10.278Z,96.02
2023-01-07T00:46:17.060Z,96.19
2023-01-07T00:50:34.563Z,96.90
2023-01-07T00:54:42.037Z,96.05
2023-01-07T00:58:47.181Z,95.64
2023-01-07T01:02:55.566Z,96.36
2023-01-07T01:07:00.993Z,96.46
2023-01-07T01:11:08.846Z,96.35
2023-01-07T01:15:15.477Z,96.88
2023-01-07T01:19:24.548Z,97.08
2023-01-07T01:23:40.751Z,96.68
2023-01-07T01:27:45.452Z,96.81
2023-01-07T01:31:50.532Z,96.59
2023-01-07T01:36:01.308Z,96.37
2023-01-07T01:40:15.981Z,96.88
2023-01-07T01:45:01.258Z,94.24
2023-01-07T01:49:24.022Z,96.24
2023-01-07T01:53:34.519Z,96.38
2023-01-07T01:57:42.961Z,96.16
2023-01-07T02:01:48.002Z,95.72
2023-01-07T02:05:52.068Z,95.99
2023-01-07T02:09:58.554Z,95.46
2023-01-07T02:14:15.854Z,96.09
2023-01-07T02:18:32.256Z,95.33
2023-01-07T02:22:50.201Z,95.89
2023-01-07T02:27:35.514Z,96.92
2023-01-07T02:32:11.940Z,96.26
2023-01-07T02:36:44.366Z,96.04
2023-01-07T02:40:56.428Z,96.27
2023-01-07T02:45:06.780Z,96.41
2023-01-07T02:49:17.335Z,96.25
2023-01-07T02:53:24.167Z,95.17
2023-01-07T02:57:42.797Z,95.60
2023-01-07T03:02:01.393Z,96.00
2023-01-07T03:06:16.116Z,95.83
2023-01-07T03:10:27.083Z,95.26
2023-01-07T03:14:41.114Z,95.68
2023-01-07T03:18:52.847Z,95.73
2023-01-07T03:23:03.487Z,95.56
2023-01-07T03:27:11.185Z,96.07
2023-01-07T03:31:18.474Z,95.77
2023-01-07T03:35:24.935Z,96.44
2023-01-07T03:39:33.342Z,96.60
2023-01-07T03:43:37.953Z,95.81
2023-01-07T03:47:45.088Z,96.08
2023-01-07T03:51:56.115Z,95.86
2023-01-07T03:56:02.773Z,96.59
2023-01-07T04:00:08.205Z,95.67
2023-01-07T04:04:21.486Z,96.37
2023-01-07T04:08:30.162Z,95.55
2023-01-07T04:12:38.583Z,96.09
2023-01-07T04:16:43.649Z,96.20
2023-01-07T04:20:51.336Z,96.41
2023-01-07T04:25:00.973Z,96.89
2023-01-07T04:29:10.301Z,96.13
2023-01-07T04:33:17.160Z,96.48
2023-01-07T04:37:22.398Z,96.33
2023-01-07T04:41:27.008Z,96.18
2023-01-07T04:45:39.604Z,96.37
2023-01-07T04:49:47.056Z,96.16
2023-01-07T04:54:05.568Z,96.54
2023-01-07T04:58:09.805Z,96.41
2023-01-07T05:02:18.854Z,96.39
2023-01-07T05:06:26.169Z,96.40
2023-01-07T05:10:30.680Z,96.84
2023-01-07T05:14:47.910Z,96.37
2023-01-07T05:18:54.262Z,96.30
2023-01-07T05:22:57.659Z,96.48
2023-01-07T05:27:17.529Z,96.55
2023-01-07T05:31:22.562Z,95.20
2023-01-07T05:35:28.354Z,95.86
2023-01-07T05:39:32.860Z,96.46
2023-01-07T05:43:39.939Z,96.09
2023-01-07T05:47:44.648Z,95.98
2023-01-07T05:51:50.306Z,96.37
2023-01-07T05:55:57.974Z,94.90
2023-01-07T06:00:01.659Z,95.72
2023-01-07T06:04:05.277Z,96.14
2023-01-07T06:08:13.797Z,96.10
2023-01-07T06:12:17.626Z,95.30
2023-01-07T06:16:36.041Z,95.60
2023-01-07T06:20:44.562Z,96.32
2023-01-07T06:24:54.091Z,95.64
2023-01-07T06:29:01.941Z,96.76
2023-01-07T06:33:08.785Z,96.17
2023-01-07T06:37:16.314Z,96.56
2023-01-07T06:41:22.611Z,96.64
2023-01-07T06:45:27.077Z,96.55
2023-01-07T06:49:31.987Z,96.61
2023-01-07T06:53:39.010Z,95.93
2023-01-07T06:57:51.439Z,95.74
2023-01-07T07:01:55.154Z,96.11
2023-01-07T07:05:59.269Z,95.64
2023-01-07T07:10:07.605Z,95.70
2023-01-07T07:14:13.113Z,95.93
2023-01-07T07:18:16.705Z,95.71
2023-01-07T07:22:23.796Z,96.17
2023-01-07T07:26:28.007Z,96.47
2023-01-07T07:30:45.451Z,95.63
2023-01-07T07:34:50.883Z,93.96
2023-01-07T07:39:03.530Z,93.86
2023-01-07T07:43:13.132Z,93.29
2023-01-07T07:47:21.752Z,93.03
2023-01-07T07:51:28.638Z,91.33
2023-01-07T07:55:34.307Z,91.22
2023-01-07T07:59:39.455Z,90.88
2023-01-07T08:03:49.241Z,90.60
2023-01-07T08:08:00.207Z,90.01
2023-01-07T08:12:04.761Z,87.21
2023-01-07T08:16:09.349Z,89.22
2023-01-07T08:20:17.265Z,89.93
2023-01-07T08:24:22.787Z,89.98
2023-01-07T08:28:28.021Z,88.16
2023-01-07T08:32:31.573Z,87.83
2023-01-07T08:36:37.520Z,88.00
2023-01-07T08:40:41.537Z,88.62
2023-01-07T08:44:48.909Z,88.27
2023-01-07T08:48:58.511Z,88.73
2023-01-07T08:53:08.623Z,88.77
2023-01-07T08:57:25.137Z,87.96
2023-01-07T09:01:30.223Z,86.83
2023-01-07T09:05:40.969Z,88.43
2023-01-07T09:10:00.152Z,86.73
2023-01-07T09:14:08.825Z,87.20
2023-01-07T09:18:13.936Z,86.87
2023-01-07T09:22:18.861Z,86.75
2023-01-07T09:26:29.072Z,86.29
2023-01-07T09:30:33.333Z,84.20
2023-01-07T09:34:39.039Z,85.52
2023-01-07T09:38:46.383Z,84.80
2023-01-07T09:42:56.468Z,84.71
2023-01-07T09:47:14.037Z,84.33
2023-01-07T09:51:22.163Z,84.63
2023-01-07T09:56:10.737Z,83.58
2023-01-07T10:00:17.300Z,83.83
2023-01-07T10:04:30.426Z,83.28
2023-01-07T10:08:48.320Z,83.62
2023-01-07T10:13:01.519Z,83.55
2023-01-07T10:17:11.965Z,83.14
2023-01-07T10:21:22.759Z,83.81
2023-01-07T10:25:29.831Z,84.18
2023-01-07T10:29:38.806Z,82.59
2023-01-07T10:33:48.087Z,83.24
2023-01-07T10:37:52.520Z,83.03
2023-01-07T10:42:07.171Z,80.82
2023-01-07T10:46:21.567Z,82.38
2023-01-07T10:50:40.353Z,82.83
2023-01-07T10:55:07.265Z,82.71
2023-01-07T10:59:16.723Z,82.41
2023-01-07T11:03:28.885Z,81.99
2023-01-07T11:07:41.039Z,81.96
2023-01-07T11:11:45.207Z,81.53
2023-01-07T11:15:50.762Z,82.11
2023-01-07T11:19:54.193Z,83.00
2023-01-07T11:24:02.153Z,82.43
2023-01-07T11:28:19.023Z,80.64
2023-01-07T11:32:26.630Z,81.20
2023-01-07T11:36:41.069Z,82.18
2023-01-07T11:41:00.899Z,79.89
2023-01-07T11:45:20.039Z,81.32
2023-01-07T11:49:27.412Z,82.93
2023-01-07T11:53:36.640Z,81.28
2023-01-07T11:57:43.533Z,80.59
2023-01-07T12:01:52.176Z,81.18
2023-01-07T12:05:58.343Z,80.57
2023-01-07T12:10:02.172Z,80.35
2023-01-07T12:14:08.185Z,79.81
2023-01-07T12:18:33.810Z,80.25
2023-01-07T12:22:45.650Z,78.89
2023-01-07T12:26:54.224Z,79.75
2023-01-07T12:31:27.869Z,80.95
2023-01-07T12:35:37.512Z,79.50
2023-01-07T12:39:44.521Z,79.99
2023-01-07T12:43:57.973Z,78.94
2023-01-07T12:48:06.740Z,79.08
2023-01-07T12:52:23.324Z,79.41
2023-01-07T12:56:29.387Z,79.25
2023-01-07T13:00:36.759Z,79.09
2023-01-07T13:04:51.093Z,78.69
2023-01-07T13:08:59.426Z,78.38
2023-01-07T13:13:09.397Z,76.79
2023-01-07T13:17:16.390Z,77.61
2023-01-07T13:21:24.165Z,77.71
2023-01-07T13:25:46.725Z,78.32
2023-01-07T13:30:03.995Z,78.43
2023-01-07T13:34:18.569Z,78.51
2023-01-07T13:38:35.650Z,78.65
2023-01-07T13:42:50.435Z,78.95
2023-01-07T13:46:57.217Z,78.09
2023-01-07T13:51:02.445Z,77.97
2023-01-07T13:55:36.809Z,77.63
2023-01-07T14:00:04.698Z,77.72
2023-01-07T14:04:39.017Z,77.99
2023-01-07T14:08:53.319Z,78.53
2023-01-07T14:13:20.825Z,78.61
2023-01-07T14:17:28.679Z,78.00
2023-01-07T14:21:51.534Z,76.96
2023-01-07T14:26:08.120Z,78.20
2023-01-07T14:30:25.691Z,77.07
2023-01-07T14:34:30.611Z,78.40
2023-01-07T14:38:59.819Z,79.64
2023-01-07T14:43:41.863Z,78.05
2023-01-07T14:48:00.048Z,77.49
2023-01-07T14:52:14.947Z,78.80
2023-01-07T14:56:32.497Z,77.86
2023-01-07T15:01:11.523Z,79.51
2023-01-07T15:05:31.173Z,79.55
2023-01-07T15:10:00.463Z,78.92
2023-01-07T15:14:25.120Z,80.52
2023-01-07T15:18:45.869Z,79.17
2023-01-07T15:23:03.223Z,79.51
2023-01-07T15:27:11.704Z,80.51
2023-01-07T15:31:29.195Z,80.95
2023-01-07T15:35:36.443Z,81.49
2023-01-07T15:39:50.299Z,83.73
2023-01-07T15:43:54.867Z,82.93
2023-01-07T15:48:13.835Z,84.61
2023-01-07T15:52:25.729Z,84.92
2023-01-07T15:56:33.061Z,83.61
2023-01-07T16:00:40.752Z,84.87
2023-01-07T16:04:52.223Z,85.72
2023-01-07T16:08:56.545Z,84.77
2023-01-07T16:13:05.672Z,84.39
2023-01-07T16:17:15.628Z,85.13
2023-01-07T16:21:22.241Z,85.98
2023-01-07T16:25:35.270Z,85.18
2023-01-07T16:29:45.985Z,86.12
2023-01-07T16:33:58.192Z,87.51
2023-01-07T16:38:06.774Z,88.23
2023-01-07T16:42:24.080Z,88.47
2023-01-07T16:46:33.424Z,87.82
2023-01-07T16:50:47.301Z,87.30
2023-01-07T16:54:56.338Z,88.65
2023-01-07T16:59:01.767Z,89.85
2023-01-07T17:03:08.122Z,89.97
2023-01-07T17:07:21.439Z,89.72
2023-01-07T17:11:36.474Z,90.37
2023-01-07T17:15:42.912Z,91.69
2023-01-07T17:20:13.464Z,91.44
2023-01-07T17:24:28.510Z,91.58
2023-01-07T17:28:40.202Z,91.56
2023-01-07T17:32:47.481Z,91.82
2023-01-07T17:37:03.662Z,92.70
2023-01-07T17:41:28.507Z,93.23
2023-01-07T17:45:32.816Z,92.97
2023-01-07T17:49:39.460Z,92.17
2023-01-07T17:53:49.423Z,92.99
2023-01-07T17:57:53.374Z,93.97
2023-01-07T18:01:57.651Z,92.82
2023-01-07T18:06:07.874Z,92.85
2023-01-07T18:10:24.521Z,93.06
2023-01-07T18:14:35.908Z,93.59
2023-01-07T18:18:43.389Z,93.83
2023-01-07T18:22:48.658Z,94.41
2023-01-07T18:26:56.819Z,92.98
2023-01-07T18:31:10.041Z,93.89
2023-01-07T18:35:15.122Z,94.29
2023-01-07T18:39:23.836Z,94.25
2023-01-07T18:43:37.714Z,93.81
2023-01-07T18:47:48.127Z,94.62
2023-01-07T18:52:07.600Z,94.23
2023-01-07T18:56:32.396Z,94.59
2023-01-07T19:00:49.232Z,94.71
2023-01-07T19:04:59.474Z,94.67
2023-01-07T19:09:15.517Z,94.45
2023-01-07T19:13:23.777Z,94.64
2023-01-07T19:17:32.311Z,95.05
2023-01-07T19:21:37.061Z,94.38
2023-01-07T19:25:47.089Z,94.47
2023-01-07T19:29:58.834Z,94.54
2023-01-07T19:34:06.172Z,94.69
2023-01-07T19:38:14.424Z,94.63
2023-01-07T19:42:18.749Z,94.67
2023-01-07T19:46:46.457Z,94.91
2023-01-07T19:51:14.020Z,94.66
2023-01-07T19:55:27.434Z,95.64
2023-01-07T19:59:33.692Z,95.09
2023-01-07T20:03:43.068Z,94.90
2023-01-07T20:08:02.238Z,95.70
2023-01-07T20:12:10.286Z,95.02
2023-01-07T20:16:16.444Z,95.63
2023-01-07T20:20:24.921Z,96.30
2023-01-07T20:24:34.099Z,95.86
2023-01-07T20:28:38.957Z,96.41
2023-01-07T20:32:46.366Z,96.66
2023-01-07T20:36:56.284Z,96.06
2023-01-07T20:41:01.494Z,95.52
2023-01-07T20:45:08.818Z,96.00
2023-01-07T20:49:23.635Z,96.09
2023-01-07T20:53:38.269Z,96.35
2023-01-07T20:57:48.072Z,96.87
2023-01-07T21:02:00.973Z,96.65
2023-01-07T21:06:08.200Z,95.78
2023-01-07T21:10:20.562Z,97.26
2023-01-07T21:14:33.774Z,97.23
2023-01-07T21:18:43.660Z,97.18
2023-01-07T21:22:47.715Z,96.44
2023-01-07T21:26:51.797Z,96.30
2023-01-07T21:30:56.188Z,97.46
2023-01-07T21:34:58.991Z,97.00
2023-01-07T21:39:01.760Z,97.70
2023-01-07T21:43:07.440Z,98.02
2023-01-07T21:47:11.971Z,97.34
2023-01-07T21:51:21.082Z,97.66
2023-01-07T21:55:24.538Z,96.82
2023-01-07T21:59:28.040Z,96.45
2023-01-07T22:03:35.821Z,97.02
2023-01-07T22:07:45.076Z,96.77
2023-01-07T22:11:50.360Z,96.88
2023-01-07T22:15:57.566Z,97.05
2023-01-07T22:20:01.970Z,96.23
2023-01-07T22:24:05.548Z,95.97
2023-01-07T22:28:17.124Z,96.98
2023-01-07T22:32:24.424Z,96.56
2023-01-07T22:36:33.675Z,95.87
2023-01-07T22:40:37.770Z,96.17
2023-01-07T22:44:44.452Z,96.21
2023-01-07T22:48:47.536Z,96.67
2023-01-07T22:52:52.814Z,96.05
2023-01-07T22:56:56.212Z,95.90
2023-01-07T23:01:14.293Z,96.10
2023-01-07T23:05:17.868Z,96.55
2023-01-07T23:09:22.043Z,96.76
2023-01-07T23:13:26.252Z,96.79
2023-01-07T23:17:28.957Z,95.75
2023-01-07T23:21:33.587Z,95.60
2023-01-07T23:25:37.938Z,96.75
2023-01-07T23:29:42.001Z,96.19
2023-01-07T23:33:44.742Z,95.29
2023-01-07T23:37:47.434Z,95.11
2023-01-07T23:41:53.073Z,96.46
2023-01-07T23:46:01.016Z,96.16
2023-01-07T23:50:04.269Z,95.47
2023-01-07T23:54:10.342Z,96.51
2023-01-07T23:58:18.570Z,96.47
